createdAt,value
2019-03-23T00:01:12.781Z,100409.80
2019-03-23T00:03:41.013Z,100408.99
2019-03-23T00:06:09.257Z,100410.16
2019-03-23T00:08:37.486Z,100409.28
2019-03-23T00:11:05.734Z,100412.94
2019-03-23T00:13:33.993Z,100413.33
2019-03-23T00:16:02.232Z,100411.45
2019-03-23T00:18:30.470Z,100406.72
2019-03-23T00:20:58.707Z,100413.80
2019-03-23T00:23:27.203Z,100406.40
2019-03-23T00:25:55.673Z,100402.77
2019-03-23T00:28:23.963Z,100403.95
2019-03-23T00:30:52.200Z,100408.64
2019-03-23T00:33:20.663Z,100402.02
2019-03-23T00:35:49.292Z,100408.14
2019-03-23T00:38:17.881Z,100397.61
2019-03-23T00:40:46.120Z,100395.05
2019-03-23T00:43:14.353Z,100392.28
2019-03-23T00:45:42.913Z,100391.17
2019-03-23T00:48:11.152Z,100391.35
2019-03-23T00:50:39.394Z,100390.36
2019-03-23T00:53:07.624Z,100390.25
2019-03-23T00:55:35.959Z,100385.30
2019-03-23T00:58:04.500Z,100399.37
2019-03-23T01:00:32.766Z,100399.05
2019-03-23T01:03:01.000Z,100394.21
2019-03-23T01:05:29.246Z,100393.89
2019-03-23T01:07:57.715Z,100395.38
2019-03-23T01:10:26.202Z,100391.70
2019-03-23T01:12:54.436Z,100389.59
2019-03-23T01:15:22.681Z,100399.22
2019-03-23T01:17:50.943Z,100398.15
2019-03-23T01:20:19.503Z,100394.87
2019-03-23T01:22:47.749Z,100401.16
2019-03-23T01:25:16.075Z,100396.70
2019-03-23T01:27:44.652Z,100388.31
2019-03-23T01:30:14.219Z,100387.81
2019-03-23T01:32:42.466Z,100385.09
2019-03-23T01:35:11.148Z,100387.36
2019-03-23T01:37:39.383Z,100383.30
2019-03-23T01:40:08.672Z,100376.61
2019-03-23T01:42:36.911Z,100385.23
2019-03-23T01:45:07.883Z,100375.45
2019-03-23T01:47:36.391Z,100379.17
2019-03-23T01:50:07.335Z,100369.33
2019-03-23T01:52:35.591Z,100370.83
2019-03-23T01:55:05.563Z,100378.23
2019-03-23T01:57:34.115Z,100381.06
2019-03-23T02:00:02.637Z,100374.34
2019-03-23T02:02:30.892Z,100371.39
2019-03-23T02:05:01.138Z,100361.16
2019-03-23T02:07:29.099Z,100365.89
2019-03-23T02:09:57.651Z,100359.37
2019-03-23T02:12:25.886Z,100357.02
2019-03-23T02:14:54.334Z,100360.53
2019-03-23T02:17:22.795Z,100359.30
2019-03-23T02:19:51.246Z,100360.28
2019-03-23T02:22:19.706Z,100358.78
2019-03-23T02:24:48.228Z,100356.77
2019-03-23T02:27:16.682Z,100356.83
2019-03-23T02:29:44.914Z,100358.69
2019-03-23T02:32:13.161Z,100359.63
2019-03-23T02:34:41.390Z,100360.95
2019-03-23T02:37:09.627Z,100365.38
2019-03-23T02:39:37.912Z,100361.70
2019-03-23T02:42:06.157Z,100363.63
2019-03-23T02:44:34.392Z,100363.64
2019-03-23T02:47:02.633Z,100360.98
2019-03-23T02:49:30.918Z,100359.12
2019-03-23T02:51:59.160Z,100366.47
2019-03-23T02:54:27.415Z,100366.47
2019-03-23T02:56:55.637Z,100362.33
2019-03-23T02:59:24.225Z,100363.88
2019-03-23T03:01:52.460Z,100365.81
2019-03-23T03:04:20.970Z,100368.14
2019-03-23T03:06:49.216Z,100363.30
2019-03-23T03:09:17.474Z,100358.89
2019-03-23T03:11:46.008Z,100363.50
2019-03-23T03:14:14.488Z,100360.55
2019-03-23T03:16:42.970Z,100365.66
2019-03-23T03:19:11.427Z,100365.81
2019-03-23T03:21:39.674Z,100358.54
2019-03-23T03:24:07.918Z,100363.65
2019-03-23T03:26:36.393Z,100365.93
2019-03-23T03:29:04.853Z,100369.65
2019-03-23T03:31:33.093Z,100368.76
2019-03-23T03:34:01.330Z,100381.69
2019-03-23T03:36:30.212Z,100368.95
2019-03-23T03:38:58.592Z,100351.05
2019-03-23T03:41:26.825Z,100381.83
2019-03-23T03:43:55.052Z,100380.81
2019-03-23T03:46:23.291Z,100377.25
2019-03-23T03:48:51.523Z,100375.59
2019-03-23T03:51:20.081Z,100379.10
2019-03-23T03:56:15.929Z,100393.56
2019-03-23T03:58:44.162Z,100385.28
2019-03-23T04:01:12.391Z,100388.98
2019-03-23T04:03:40.638Z,100380.20
2019-03-23T04:06:09.238Z,100380.63
2019-03-23T04:08:37.475Z,100382.67
2019-03-23T04:11:05.994Z,100385.61
2019-03-23T04:13:34.234Z,100381.16
2019-03-23T04:16:02.477Z,100383.98
2019-03-23T04:18:30.698Z,100386.67
2019-03-23T04:20:59.212Z,100379.05
2019-03-23T04:23:27.441Z,100386.37
2019-03-23T04:25:55.958Z,100385.81
2019-03-23T04:28:24.221Z,100380.63
2019-03-23T04:30:52.434Z,100382.58
2019-03-23T04:33:20.677Z,100389.48
2019-03-23T04:35:49.287Z,100384.44
2019-03-23T04:38:22.574Z,100382.91
2019-03-23T04:40:47.812Z,100388.55
2019-03-23T04:43:16.358Z,100386.52
2019-03-23T04:45:44.587Z,100389.45
2019-03-23T04:48:12.935Z,100389.25
2019-03-23T04:50:41.164Z,100390.14
2019-03-23T04:53:09.399Z,100396.90
2019-03-23T04:55:37.631Z,100398.44
2019-03-23T04:58:05.942Z,100408.52
2019-03-23T05:00:34.175Z,100408.27
2019-03-23T05:03:02.409Z,100411.84
2019-03-23T05:05:30.633Z,100412.88
2019-03-23T05:07:59.234Z,100406.67
2019-03-23T05:10:27.466Z,100412.42
2019-03-23T05:12:55.714Z,100411.02
2019-03-23T05:15:23.976Z,100414.58
2019-03-23T05:17:52.542Z,100412.80
2019-03-23T05:20:26.114Z,100416.37
2019-03-23T05:22:54.348Z,100414.34
2019-03-23T05:25:29.160Z,100411.58
2019-03-23T05:27:58.035Z,100417.33
2019-03-23T05:30:26.631Z,100418.09
2019-03-23T05:32:54.935Z,100421.03
2019-03-23T05:35:23.170Z,100418.23
2019-03-23T05:37:51.664Z,100414.66
2019-03-23T05:40:19.958Z,100419.76
2019-03-23T05:42:48.244Z,100415.81
2019-03-23T05:45:16.474Z,100424.34
2019-03-23T05:47:44.718Z,100414.92
2019-03-23T05:50:13.262Z,100422.19
2019-03-23T05:52:41.502Z,100424.59
2019-03-23T05:55:09.730Z,100433.34
2019-03-23T05:57:37.976Z,100428.88
2019-03-23T06:00:08.447Z,100419.61
2019-03-23T06:02:36.684Z,100419.61
2019-03-23T06:05:06.356Z,100421.98
2019-03-23T06:07:34.595Z,100439.52
2019-03-23T06:10:03.366Z,100450.84
2019-03-23T06:12:31.603Z,100450.84
2019-03-23T06:15:00.421Z,100455.68
2019-03-23T06:17:28.679Z,100461.63
2019-03-23T06:19:56.911Z,100463.66
2019-03-23T06:22:25.150Z,100467.16
2019-03-23T06:24:53.385Z,100467.16
2019-03-23T06:27:21.627Z,100460.49
2019-03-23T06:29:50.104Z,100459.67
2019-03-23T06:32:20.663Z,100461.16
2019-03-23T06:34:48.299Z,100464.55
2019-03-23T06:37:16.537Z,100467.89
2019-03-23T06:39:44.854Z,100471.16
2019-03-23T06:42:13.082Z,100473.23
2019-03-23T06:44:41.334Z,100464.08
2019-03-23T06:47:09.550Z,100469.12
2019-03-23T06:49:38.051Z,100463.02
2019-03-23T06:52:06.288Z,100465.53
2019-03-23T06:54:34.519Z,100467.70
2019-03-23T06:57:02.985Z,100469.76
2019-03-23T06:59:31.216Z,100468.97
2019-03-23T07:01:59.669Z,100471.13
2019-03-23T07:04:27.912Z,100472.92
2019-03-23T07:06:56.137Z,100475.08
2019-03-23T07:09:24.379Z,100475.82
2019-03-23T07:11:52.955Z,100476.67
2019-03-23T07:14:21.435Z,100469.77
2019-03-23T07:16:49.672Z,100466.28
2019-03-23T07:19:18.015Z,100464.83
2019-03-23T07:21:46.256Z,100466.38
2019-03-23T07:24:14.498Z,100469.38
2019-03-23T07:26:42.727Z,100465.86
2019-03-23T07:29:10.962Z,100466.28
2019-03-23T07:31:39.236Z,100468.77
2019-03-23T07:34:07.663Z,100468.99
2019-03-23T07:36:36.133Z,100465.67
2019-03-23T07:39:06.495Z,100469.33
2019-03-23T07:41:34.731Z,100461.89
2019-03-23T07:44:03.322Z,100468.42
2019-03-23T07:46:31.551Z,100465.22
2019-03-23T07:48:59.802Z,100466.50
2019-03-23T07:51:28.259Z,100460.98
2019-03-23T07:53:56.739Z,100465.36
2019-03-23T07:56:24.970Z,100471.88
2019-03-23T07:58:53.499Z,100462.33
2019-03-23T08:01:21.978Z,100469.80
2019-03-23T08:03:50.223Z,100467.23
2019-03-23T08:06:18.447Z,100467.42
2019-03-23T08:08:46.690Z,100470.77
2019-03-23T08:11:14.927Z,100472.62
2019-03-23T08:13:43.472Z,100474.26
2019-03-23T08:16:11.926Z,100476.01
2019-03-23T08:18:40.494Z,100472.98
2019-03-23T08:21:08.716Z,100484.43
2019-03-23T08:23:37.193Z,100478.77
2019-03-23T08:26:05.675Z,100485.22
2019-03-23T08:28:33.963Z,100479.98
2019-03-23T08:31:02.255Z,100485.47
2019-03-23T08:33:30.451Z,100486.23
2019-03-23T08:35:58.692Z,100492.53
2019-03-23T08:38:27.187Z,100492.77
2019-03-23T08:40:55.428Z,100497.87
2019-03-23T08:43:23.666Z,100490.66
2019-03-23T08:45:52.203Z,100496.25
2019-03-23T08:48:20.484Z,100494.58
2019-03-23T08:50:48.727Z,100488.27
2019-03-23T08:53:17.238Z,100490.04
2019-03-23T08:55:45.474Z,100490.92
2019-03-23T08:58:13.716Z,100484.59
2019-03-23T09:00:41.952Z,100493.70
2019-03-23T09:03:10.189Z,100491.69
2019-03-23T09:05:38.433Z,100495.57
2019-03-23T09:08:06.673Z,100497.65
2019-03-23T09:10:35.278Z,100497.75
2019-03-23T09:13:03.517Z,100497.41
2019-03-23T09:15:32.045Z,100496.53
2019-03-23T09:18:00.521Z,100497.50
2019-03-23T09:20:29.688Z,100500.05
2019-03-23T09:22:58.302Z,100492.56
2019-03-23T09:25:26.545Z,100491.67
2019-03-23T09:27:55.067Z,100498.41
2019-03-23T09:30:23.329Z,100496.38
2019-03-23T09:32:51.564Z,100496.34
2019-03-23T09:35:19.812Z,100507.06
2019-03-23T09:37:48.052Z,100506.13
2019-03-23T09:40:16.288Z,100508.55
2019-03-23T09:42:44.826Z,100506.08
2019-03-23T09:45:14.314Z,100512.27
2019-03-23T09:47:42.756Z,100512.70
2019-03-23T09:50:11.504Z,100513.89
2019-03-23T09:52:39.756Z,100508.73
2019-03-23T09:55:08.329Z,100510.52
2019-03-23T09:57:36.573Z,100503.29
2019-03-23T10:00:09.895Z,100502.03
2019-03-23T10:02:38.159Z,100503.32
2019-03-23T10:05:07.413Z,100502.61
2019-03-23T10:07:35.653Z,100496.47
2019-03-23T10:10:04.584Z,100488.11
2019-03-23T10:12:32.888Z,100491.89
2019-03-23T10:15:01.442Z,100488.84
2019-03-23T10:17:29.686Z,100482.69
2019-03-23T10:19:58.198Z,100483.10
2019-03-23T10:22:26.440Z,100485.66
2019-03-23T10:24:54.964Z,100488.55
2019-03-23T10:27:23.443Z,100483.17
2019-03-23T10:29:51.677Z,100486.67
2019-03-23T10:32:20.199Z,100482.02
2019-03-23T10:34:48.430Z,100491.77
2019-03-23T10:37:16.685Z,100489.19
2019-03-23T10:39:44.915Z,100490.94
2019-03-23T10:42:13.149Z,100496.34
2019-03-23T10:44:41.388Z,100485.13
2019-03-23T10:47:09.864Z,100489.42
2019-03-23T10:49:38.111Z,100483.63
2019-03-23T10:52:06.344Z,100484.94
2019-03-23T10:54:34.900Z,100482.09
2019-03-23T10:57:03.136Z,100487.70
2019-03-23T10:59:31.376Z,100484.08
2019-03-23T11:01:59.612Z,100481.25
2019-03-23T11:04:27.926Z,100481.45
2019-03-23T11:06:56.162Z,100473.25
2019-03-23T11:09:24.405Z,100473.84
2019-03-23T11:11:52.640Z,100469.12
2019-03-23T11:14:20.941Z,100469.59
2019-03-23T11:16:49.171Z,100475.27
2019-03-23T11:19:17.670Z,100479.62
2019-03-23T11:21:45.905Z,100465.41
2019-03-23T11:24:14.150Z,100471.77
2019-03-23T11:26:42.380Z,100472.53
2019-03-23T11:29:10.889Z,100478.25
2019-03-23T11:31:39.369Z,100474.97
2019-03-23T11:34:17.256Z,100482.10
2019-03-23T11:36:37.578Z,100475.78
2019-03-23T11:39:07.294Z,100478.40
2019-03-23T11:41:35.525Z,100472.08
2019-03-23T11:44:04.335Z,100477.27
2019-03-23T11:46:32.589Z,100465.70
2019-03-23T11:49:00.910Z,100463.31
2019-03-23T11:51:29.154Z,100464.03
2019-03-23T11:53:58.261Z,100463.72
2019-03-23T11:56:30.548Z,100465.20
2019-03-23T11:58:56.696Z,100463.41
2019-03-23T12:01:24.932Z,100462.53
2019-03-23T12:03:53.172Z,100463.86
2019-03-23T12:06:21.410Z,100457.55
2019-03-23T12:08:49.641Z,100458.75
2019-03-23T12:11:18.153Z,100456.78
2019-03-23T12:13:46.386Z,100459.08
2019-03-23T12:16:14.622Z,100452.99
2019-03-23T12:18:42.895Z,100454.76
2019-03-23T12:21:11.136Z,100449.45
2019-03-23T12:23:39.368Z,100458.19
2019-03-23T12:26:07.610Z,100447.98
2019-03-23T12:28:35.844Z,100448.47
2019-03-23T12:31:04.092Z,100445.43
2019-03-23T12:33:32.648Z,100444.55
2019-03-23T12:36:00.886Z,100442.23
2019-03-23T12:38:29.129Z,100447.27
2019-03-23T12:40:57.374Z,100439.83
2019-03-23T12:43:25.606Z,100436.70
2019-03-23T12:45:53.880Z,100435.98
2019-03-23T12:48:22.115Z,100432.64
2019-03-23T12:50:50.690Z,100431.77
2019-03-23T12:53:18.928Z,100426.98
2019-03-23T12:55:47.172Z,100410.33
2019-03-23T12:58:15.416Z,100421.09
2019-03-23T13:00:43.643Z,100422.06
2019-03-23T13:03:12.210Z,100432.05
2019-03-23T13:05:40.420Z,100424.83
2019-03-23T13:08:08.936Z,100426.27
2019-03-23T13:10:37.421Z,100429.76
2019-03-23T13:13:05.655Z,100427.36
2019-03-23T13:15:34.279Z,100419.14
2019-03-23T13:18:03.158Z,100417.70
2019-03-23T13:20:31.729Z,100415.39
2019-03-23T13:22:59.996Z,100407.06
2019-03-23T13:25:28.511Z,100408.74
2019-03-23T13:27:56.755Z,100409.72
2019-03-23T13:30:25.269Z,100401.86
2019-03-23T13:32:53.511Z,100408.17
2019-03-23T13:35:22.030Z,100409.57
2019-03-23T13:37:50.517Z,100407.55
2019-03-23T13:40:18.752Z,100404.95
2019-03-23T13:42:47.277Z,100401.30
2019-03-23T13:45:15.567Z,100404.41
2019-03-23T13:47:43.806Z,100398.78
2019-03-23T13:50:15.442Z,100401.38
2019-03-23T13:52:43.968Z,100397.30
2019-03-23T13:55:21.266Z,100398.92
2019-03-23T13:57:49.513Z,100397.45
2019-03-23T14:00:17.739Z,100401.30
2019-03-23T14:02:46.290Z,100395.95
2019-03-23T14:05:16.288Z,100401.39
2019-03-23T14:07:45.000Z,100395.19
2019-03-23T14:10:13.236Z,100392.28
2019-03-23T14:12:41.486Z,100390.75
2019-03-23T14:15:09.842Z,100392.93
2019-03-23T14:17:38.085Z,100394.84
2019-03-23T14:20:08.468Z,100398.42
2019-03-23T14:22:36.715Z,100394.33
2019-03-23T14:25:06.556Z,100401.31
2019-03-23T14:27:34.796Z,100412.31
2019-03-23T14:30:03.908Z,100403.38
2019-03-23T14:32:32.383Z,100403.94
2019-03-23T14:35:01.274Z,100401.23
2019-03-23T14:37:29.870Z,100408.02
2019-03-23T14:39:58.444Z,100396.47
2019-03-23T14:42:26.679Z,100397.48
2019-03-23T14:44:55.197Z,100412.57
2019-03-23T14:47:23.434Z,100406.45
2019-03-23T14:49:52.055Z,100405.55
2019-03-23T14:52:20.350Z,100404.95
2019-03-23T14:54:48.922Z,100402.25
2019-03-23T14:57:17.160Z,100407.24
2019-03-23T14:59:45.682Z,100418.88
2019-03-23T15:02:13.914Z,100410.77
2019-03-23T15:04:42.440Z,100415.03
2019-03-23T15:07:10.921Z,100409.88
2019-03-23T15:09:39.164Z,100414.55
2019-03-23T15:12:14.762Z,100416.13
2019-03-23T15:14:37.696Z,100419.27
2019-03-23T15:17:06.186Z,100418.38
2019-03-23T15:19:34.434Z,100420.96
2019-03-23T15:22:02.942Z,100409.53
2019-03-23T15:24:31.183Z,100408.06
2019-03-23T15:26:59.420Z,100425.38
2019-03-23T15:29:27.664Z,100411.69
2019-03-23T15:31:55.955Z,100412.19
2019-03-23T15:34:24.213Z,100404.57
2019-03-23T15:36:52.908Z,100408.41
2019-03-23T15:39:21.145Z,100408.11
2019-03-23T15:41:49.384Z,100409.29
2019-03-23T15:44:17.948Z,100410.55
2019-03-23T15:46:46.195Z,100410.90
2019-03-23T15:49:14.427Z,100408.60
2019-03-23T15:51:42.676Z,100410.02
2019-03-23T15:54:10.968Z,100411.59
2019-03-23T15:56:39.218Z,100406.11
2019-03-23T15:59:07.712Z,100416.89
2019-03-23T16:01:35.950Z,100412.39
2019-03-23T16:04:04.479Z,100415.21
2019-03-23T16:06:32.717Z,100416.80
2019-03-23T16:09:00.960Z,100417.50
2019-03-23T16:11:29.231Z,100415.86
2019-03-23T16:13:57.698Z,100417.01
2019-03-23T16:16:25.944Z,100424.25
2019-03-23T16:18:54.179Z,100416.64
2019-03-23T16:21:22.653Z,100413.24
2019-03-23T16:23:50.912Z,100419.41
2019-03-23T16:26:19.169Z,100414.30
2019-03-23T16:28:47.394Z,100417.07
2019-03-23T16:31:15.938Z,100417.55
2019-03-23T16:33:44.167Z,100425.61
2019-03-23T16:36:12.411Z,100413.19
2019-03-23T16:38:41.072Z,100427.91
2019-03-23T16:41:09.651Z,100422.00
2019-03-23T16:43:37.895Z,100432.00
2019-03-23T16:46:06.128Z,100425.37
2019-03-23T16:48:34.372Z,100433.94
2019-03-23T16:51:02.641Z,100435.97
2019-03-23T16:53:31.139Z,100440.36
2019-03-23T16:55:59.389Z,100444.22
2019-03-23T16:58:27.902Z,100450.14
2019-03-23T17:00:56.132Z,100442.20
2019-03-23T17:03:24.670Z,100451.41
2019-03-23T17:05:53.140Z,100452.36
2019-03-23T17:08:21.382Z,100457.20
2019-03-23T17:10:49.618Z,100455.36
2019-03-23T17:13:17.890Z,100448.95
2019-03-23T17:15:46.128Z,100456.05
2019-03-23T17:18:14.375Z,100459.53
2019-03-23T17:20:42.613Z,100466.19
2019-03-23T17:23:11.184Z,100467.56
2019-03-23T17:25:39.421Z,100461.30
2019-03-23T17:28:07.670Z,100467.92
2019-03-23T17:30:35.908Z,100473.08
2019-03-23T17:33:04.152Z,100482.83
2019-03-23T17:35:32.387Z,100484.35
2019-03-23T17:38:00.629Z,100488.37
2019-03-23T17:40:29.327Z,100488.08
2019-03-23T17:43:05.580Z,100494.85
2019-03-23T17:45:27.844Z,100492.11
2019-03-23T17:47:56.092Z,100490.25
2019-03-23T17:50:24.690Z,100491.15
2019-03-23T17:52:53.172Z,100488.55
2019-03-23T17:55:21.440Z,100498.06
2019-03-23T17:57:49.655Z,100501.45
2019-03-23T18:00:18.309Z,100509.59
2019-03-23T18:02:46.775Z,100513.83
2019-03-23T18:05:15.008Z,100518.98
2019-03-23T18:07:43.246Z,100525.52
2019-03-23T18:10:11.655Z,100521.70
2019-03-23T18:12:39.947Z,100535.22
2019-03-23T18:15:09.034Z,100533.52
2019-03-23T18:17:37.264Z,100553.24
2019-03-23T18:20:06.370Z,100548.72
2019-03-23T18:22:34.599Z,100555.63
2019-03-23T18:25:03.338Z,100558.65
2019-03-23T18:27:31.567Z,100564.42
2019-03-23T18:29:59.809Z,100559.34
2019-03-23T18:32:28.043Z,100568.36
2019-03-23T18:34:56.288Z,100566.70
2019-03-23T18:37:24.520Z,100574.16
2019-03-23T18:39:52.761Z,100580.05
2019-03-23T18:42:20.994Z,100581.23
2019-03-23T18:44:49.462Z,100580.84
2019-03-23T18:47:17.690Z,100583.72
2019-03-23T18:49:46.213Z,100584.64
2019-03-23T18:52:14.692Z,100580.59
2019-03-23T18:54:42.938Z,100591.62
2019-03-23T18:57:11.175Z,100579.19
2019-03-23T18:59:39.449Z,100593.03
2019-03-23T19:02:08.004Z,100590.86
2019-03-23T19:04:36.241Z,100598.39
2019-03-23T19:07:04.485Z,100597.41
2019-03-23T19:09:32.717Z,100596.83
2019-03-23T19:12:00.963Z,100594.09
2019-03-23T19:14:29.197Z,100587.48
2019-03-23T19:16:57.449Z,100586.77
2019-03-23T19:19:25.951Z,100592.61
2019-03-23T19:21:54.196Z,100592.36
2019-03-23T19:24:22.436Z,100591.88
2019-03-23T19:26:50.979Z,100593.86
2019-03-23T19:29:19.440Z,100595.14
2019-03-23T19:31:47.904Z,100598.91
2019-03-23T19:34:16.364Z,100597.73
2019-03-23T19:36:44.822Z,100597.94
2019-03-23T19:39:13.056Z,100597.69
2019-03-23T19:41:41.288Z,100597.59
2019-03-23T19:44:09.521Z,100597.00
2019-03-23T19:46:38.025Z,100594.62
2019-03-23T19:49:06.252Z,100598.39
2019-03-23T19:51:34.596Z,100608.28
2019-03-23T19:54:02.997Z,100601.36
2019-03-23T19:56:31.541Z,100604.72
2019-03-23T19:59:00.123Z,100607.69
2019-03-23T20:01:28.406Z,100610.10
2019-03-23T20:03:56.604Z,100611.69
2019-03-23T20:06:24.836Z,100611.19
2019-03-23T20:08:53.332Z,100605.86
2019-03-23T20:11:21.835Z,100603.09
2019-03-23T20:13:58.436Z,100609.33
2019-03-23T20:16:20.232Z,100619.73
2019-03-23T20:18:48.479Z,100613.31
2019-03-23T20:21:16.707Z,100608.38
2019-03-23T20:23:44.948Z,100610.45
2019-03-23T20:26:13.171Z,100610.55
2019-03-23T20:28:41.410Z,100604.84
2019-03-23T20:31:09.868Z,100607.22
2019-03-23T20:33:38.111Z,100606.63
2019-03-23T20:36:06.349Z,100601.39
2019-03-23T20:38:34.804Z,100601.19
2019-03-23T20:41:03.261Z,100603.36
2019-03-23T20:43:31.504Z,100608.02
2019-03-23T20:45:59.736Z,100602.77
2019-03-23T20:48:27.981Z,100608.64
2019-03-23T20:50:56.436Z,100605.87
2019-03-23T20:53:24.679Z,100604.38
2019-03-23T20:55:52.909Z,100595.49
2019-03-23T20:58:21.146Z,100594.01
2019-03-23T21:00:49.420Z,100598.34
2019-03-23T21:03:18.280Z,100589.06
2019-03-23T21:05:46.543Z,100596.67
2019-03-23T21:08:14.754Z,100593.94
2019-03-23T21:10:42.983Z,100589.09
2019-03-23T21:13:11.212Z,100595.41
2019-03-23T21:15:39.446Z,100593.14
2019-03-23T21:18:07.681Z,100587.90
2019-03-23T21:20:35.916Z,100582.17
2019-03-23T21:23:04.223Z,100580.78
2019-03-23T21:25:32.455Z,100589.61
2019-03-23T21:28:00.909Z,100575.57
2019-03-23T21:30:29.376Z,100579.22
2019-03-23T21:32:57.652Z,100578.52
2019-03-23T21:35:25.852Z,100574.28
2019-03-23T21:37:54.081Z,100572.20
2019-03-23T21:40:22.314Z,100572.99
2019-03-23T21:42:50.545Z,100569.04
2019-03-23T21:45:18.950Z,100566.70
2019-03-23T21:47:47.490Z,100562.25
2019-03-23T21:50:15.730Z,100562.54
2019-03-23T21:52:43.955Z,100560.77
2019-03-23T21:55:12.199Z,100558.98
2019-03-23T21:57:40.427Z,100559.96
2019-03-23T22:00:09.300Z,100559.27
2019-03-23T22:02:37.529Z,100560.16
2019-03-23T22:05:06.998Z,100558.98
2019-03-23T22:07:35.667Z,100558.87
2019-03-23T22:10:07.014Z,100552.75
2019-03-23T22:12:35.313Z,100542.51
2019-03-23T22:15:04.816Z,100549.69
2019-03-23T22:17:33.042Z,100553.15
2019-03-23T22:20:01.280Z,100549.59
2019-03-23T22:22:29.512Z,100544.78
2019-03-23T22:24:57.747Z,100552.48
2019-03-23T22:27:25.976Z,100548.92
2019-03-23T22:29:54.220Z,100544.00
2019-03-23T22:32:22.450Z,100543.00
2019-03-23T22:34:50.682Z,100545.28
2019-03-23T22:37:19.217Z,100544.78
2019-03-23T22:39:47.670Z,100545.56
2019-03-23T22:42:16.130Z,100541.13
2019-03-23T22:44:52.457Z,100537.56
2019-03-23T22:47:14.547Z,100533.30
2019-03-23T22:49:42.775Z,100542.58
2019-03-23T22:52:11.013Z,100537.88
2019-03-23T22:54:39.240Z,100536.67
2019-03-23T22:57:07.476Z,100534.89
2019-03-23T22:59:35.709Z,100532.63
2019-03-23T23:02:04.017Z,100533.70
2019-03-23T23:04:32.255Z,100533.59
2019-03-23T23:07:00.490Z,100527.69
2019-03-23T23:09:28.943Z,100528.77
2019-03-23T23:11:57.182Z,100519.94
2019-03-23T23:14:25.633Z,100522.41
2019-03-23T23:16:53.870Z,100521.41
2019-03-23T23:19:22.333Z,100520.73
2019-03-23T23:21:50.570Z,100513.62
2019-03-23T23:24:19.022Z,100510.45
2019-03-23T23:26:47.255Z,100507.68
2019-03-23T23:29:15.487Z,100503.23
2019-03-23T23:31:43.729Z,100506.61
2019-03-23T23:34:11.955Z,100498.32
2019-03-23T23:36:40.422Z,100498.01
2019-03-23T23:39:08.721Z,100501.25
2019-03-23T23:41:37.188Z,100502.82
2019-03-23T23:44:05.657Z,100493.69
2019-03-23T23:46:33.888Z,100500.67
2019-03-23T23:49:02.118Z,100495.86
2019-03-23T23:51:30.345Z,100490.80
2019-03-23T23:53:58.583Z,100492.09
2019-03-23T23:58:56.085Z,100491.51
